Vicksburg, LA

11:58 PM CST on January 21, 2017 (GMT -0600)
Vicksburg Tallulah Regional | | Change Station

Elev 85 ft 32.35 °N, 91.03 °W | Updated 5 minutes ago

Mostly Cloudy
Mostly Cloudy
64 °F
Feels Like 64 °F
N
4
Wind Variable Wind from North

Today
High -- | Low -- °F
--% Chance of Precip.
Yesterday
High -- | Low -- °F
Precip. -- in
Pressure 29.49 in
Visibility 10.0 miles
Clouds Scattered Clouds 1600 ft
Mostly Cloudy 2400 ft
Mostly Cloudy 3000 ft
Dew Point 58 °F
Humidity 80%
Rainfall 0.53 in
Snow Depth Not available.
7:03 AM 5:27 PM
Waning Crescent, 29% visible
METAR KTVR 220553Z AUTO 36003KT 10SM SCT016 BKN024 BKN030 18/14 A2947 RMK AO2 SLP985 T01780144 10200 20167 402220139 51011
Pressure 29.49 in
Visibility 10.0 miles
Clouds Scattered Clouds 1600 ft
Mostly Cloudy 2400 ft
Mostly Cloudy 3000 ft
Dew Point 58 °F
Humidity 80%
Rainfall 0.53 in
Snow Depth Not available.
7:03 AM 5:27 PM
Waning Crescent, 29% visible
METAR KTVR 220553Z AUTO 36003KT 10SM SCT016 BKN024 BKN030 18/14 A2947 RMK AO2 SLP985 T01780144 10200 20167 402220139 51011

Get Your Daily Forecast Email!

Thanks for signing up!

Be on the lookout for a verification email in your inbox.

You'll start receiving the daily forecast at 8 AM.

×

10-Day Weather Forecast

Almanac

Astronomy

Jan. 21, 2017 Rise Set
Actual Time
Civil Twilight
Nautical Twilight
Astronomical Twilight
Moon
Length of Visible Light
Length of Day
Tomorrow will be .
, % of the Moon is Illuminated

Today's Extremes

State Highs State Lows

Community

WunderPhotos

Upload Photos

1,962,540 photos uploaded!

WunderBlog® & News

Nearby

Air Quality

  Air Quality AQ Index Pollutant
Not available.

Snow Depth

Station Depth Elevation

Earthquake Activity

City Distance Mag. Time & Date
Minimum magnitude displayed is 2.5.

Coastal Water Temperatures

Place Temperature

Stations

Nearby Weather Stations

Station Location Temp. Windchill Dew Point Humidity Wind Precip. Elev Updated Type
                   

Watches & Warnings

There are currently no watches in effect.